createdAt,value
2018-05-19T00:01:32.292Z,14.50
2018-05-19T00:03:59.454Z,14.50
2018-05-19T00:06:26.582Z,14.50
2018-05-19T00:08:54.385Z,14.50
2018-05-19T00:11:21.885Z,14.50
2018-05-19T00:13:49.051Z,14.50
2018-05-19T00:16:16.877Z,14.50
2018-05-19T00:18:44.051Z,14.50
2018-05-19T00:21:11.097Z,14.50
2018-05-19T00:23:38.261Z,14.50
2018-05-19T00:26:06.061Z,14.40
2018-05-19T00:28:33.173Z,14.40
2018-05-19T00:31:00.301Z,14.30
2018-05-19T00:33:28.610Z,14.30
2018-05-19T00:35:55.789Z,14.20
2018-05-19T00:38:22.915Z,14.20
2018-05-19T00:40:50.051Z,14.20
2018-05-19T00:43:29.277Z,14.10
2018-05-19T00:45:56.434Z,14.10
2018-05-19T00:48:23.838Z,14.00
2018-05-19T00:50:51.142Z,13.90
2018-05-19T00:53:19.522Z,13.80
2018-05-19T00:55:47.081Z,13.80
2018-05-19T00:58:15.682Z,13.70
2018-05-19T01:00:42.952Z,13.70
2018-05-19T01:03:10.676Z,13.60
2018-05-19T01:05:38.257Z,13.60
2018-05-19T01:08:05.350Z,13.60
2018-05-19T01:10:32.426Z,13.60
2018-05-19T01:13:00.418Z,13.50
2018-05-19T01:15:30.309Z,13.50
2018-05-19T01:17:58.005Z,13.50
2018-05-19T01:20:25.261Z,13.50
2018-05-19T01:22:53.415Z,13.50
2018-05-19T01:25:20.646Z,13.40
2018-05-19T01:27:48.501Z,13.30
2018-05-19T01:30:15.735Z,13.30
2018-05-19T01:32:53.462Z,13.30
2018-05-19T01:35:20.717Z,13.20
2018-05-19T01:37:47.769Z,13.20
2018-05-19T01:40:15.609Z,13.10
2018-05-19T01:42:43.806Z,13.10
2018-05-19T01:45:11.635Z,13.10
2018-05-19T01:47:38.749Z,13.10
2018-05-19T01:50:06.586Z,13.10
2018-05-19T01:52:47.365Z,13.10
2018-05-19T01:55:14.502Z,13.10
2018-05-19T01:57:41.578Z,13.20
2018-05-19T02:00:13.939Z,13.20
2018-05-19T02:02:42.914Z,13.20
2018-05-19T02:05:09.968Z,13.20
2018-05-19T02:07:38.299Z,13.10
2018-05-19T02:10:05.344Z,13.10
2018-05-19T02:12:33.469Z,13.00
2018-05-19T02:15:00.530Z,13.10
2018-05-19T02:17:27.547Z,13.10
2018-05-19T02:19:54.599Z,13.10
2018-05-19T02:22:35.072Z,13.10
2018-05-19T02:25:02.090Z,13.10
2018-05-19T02:27:29.106Z,13.10
2018-05-19T02:29:56.142Z,13.10
2018-05-19T02:32:25.004Z,13.10
2018-05-19T02:34:52.787Z,13.10
2018-05-19T02:37:20.576Z,13.10
2018-05-19T02:39:47.668Z,13.10
2018-05-19T02:45:16.186Z,13.00
2018-05-19T02:47:43.209Z,13.00
2018-05-19T02:50:10.273Z,13.00
2018-05-19T02:52:37.414Z,13.10
2018-05-19T02:55:04.469Z,13.00
2018-05-19T02:57:31.512Z,13.00
2018-05-19T02:59:58.548Z,12.90
2018-05-19T03:02:36.869Z,12.80
2018-05-19T03:05:03.921Z,12.80
2018-05-19T03:07:30.904Z,12.70
2018-05-19T03:09:58.685Z,12.60
2018-05-19T03:12:43.804Z,12.60
2018-05-19T03:15:10.828Z,12.50
2018-05-19T03:17:37.882Z,12.50
2018-05-19T03:20:04.938Z,12.50
2018-05-19T03:22:42.685Z,12.50
2018-05-19T03:25:09.756Z,12.40
2018-05-19T03:27:36.939Z,12.40
2018-05-19T03:30:05.501Z,12.30
2018-05-19T03:32:40.658Z,12.30
2018-05-19T03:35:07.993Z,12.30
2018-05-19T03:37:35.064Z,12.30
2018-05-19T03:40:02.140Z,12.30
2018-05-19T03:42:46.865Z,12.30
2018-05-19T03:45:14.353Z,12.30
2018-05-19T03:47:41.470Z,12.30
2018-05-19T03:50:08.819Z,12.40
2018-05-19T03:52:43.392Z,12.40
2018-05-19T03:55:10.495Z,12.40
2018-05-19T03:57:55.920Z,12.50
2018-05-19T04:00:41.393Z,12.60
2018-05-19T04:03:10.276Z,12.70
2018-05-19T04:05:38.076Z,12.70
2018-05-19T04:08:06.371Z,12.70
2018-05-19T04:10:33.707Z,12.80
2018-05-19T04:13:01.805Z,12.80
2018-05-19T04:15:28.836Z,12.90
2018-05-19T04:17:55.918Z,13.00
2018-05-19T04:20:24.146Z,13.10
2018-05-19T04:22:56.622Z,13.20
2018-05-19T04:25:23.732Z,13.20
2018-05-19T04:27:51.113Z,13.20
2018-05-19T04:30:18.225Z,13.30
2018-05-19T04:33:02.919Z,13.30
2018-05-19T04:35:30.121Z,13.30
2018-05-19T04:37:57.157Z,13.40
2018-05-19T04:40:24.169Z,13.40
2018-05-19T04:42:51.549Z,13.50
2018-05-19T04:45:18.652Z,13.60
2018-05-19T04:47:45.700Z,13.70
2018-05-19T04:50:13.488Z,13.90
2018-05-19T04:52:40.581Z,13.90
2018-05-19T04:55:07.618Z,14.00
2018-05-19T04:57:35.067Z,14.10
2018-05-19T05:00:02.375Z,14.20
2018-05-19T05:02:33.378Z,14.20
2018-05-19T05:05:04.762Z,14.30
2018-05-19T05:07:31.872Z,14.40
2018-05-19T05:10:00.684Z,14.50
2018-05-19T05:12:31.599Z,14.50
2018-05-19T05:14:58.732Z,14.50
2018-05-19T05:17:25.953Z,14.60
2018-05-19T05:19:54.020Z,14.70
2018-05-19T05:22:22.192Z,14.70
2018-05-19T05:24:49.332Z,14.70
2018-05-19T05:27:16.440Z,14.70
2018-05-19T05:29:43.492Z,14.70
2018-05-19T05:32:10.672Z,14.70
2018-05-19T05:34:38.400Z,14.70
2018-05-19T05:37:05.488Z,14.70
2018-05-19T05:39:32.623Z,14.70
2018-05-19T05:42:00.902Z,14.70
2018-05-19T05:44:28.705Z,14.70
2018-05-19T05:46:55.804Z,14.70
2018-05-19T05:49:22.879Z,14.70
2018-05-19T05:51:51.787Z,14.80
2018-05-19T05:54:22.938Z,14.80
2018-05-19T05:56:50.344Z,14.80
2018-05-19T05:59:18.193Z,14.80
2018-05-19T06:01:45.247Z,14.80
2018-05-19T06:04:12.312Z,14.90
2018-05-19T06:06:39.341Z,14.80
2018-05-19T06:09:07.006Z,14.80
2018-05-19T06:11:35.100Z,14.90
2018-05-19T06:14:02.228Z,15.00
2018-05-19T06:16:29.833Z,15.00
2018-05-19T06:18:56.953Z,15.10
2018-05-19T06:21:24.762Z,15.20
2018-05-19T06:23:59.072Z,15.10
2018-05-19T06:26:27.197Z,15.30
2018-05-19T06:28:54.596Z,15.20
2018-05-19T06:31:21.745Z,15.30
2018-05-19T06:33:58.843Z,15.40
2018-05-19T06:36:25.871Z,15.50
2018-05-19T06:38:54.147Z,15.60
2018-05-19T06:41:21.299Z,15.60
2018-05-19T06:43:59.584Z,15.70
2018-05-19T06:46:28.095Z,15.70
2018-05-19T06:48:55.255Z,15.70
2018-05-19T06:51:22.640Z,15.70
2018-05-19T06:53:53.553Z,15.80
2018-05-19T06:56:20.664Z,15.90
2018-05-19T06:58:48.472Z,16.00
2018-05-19T07:01:15.889Z,15.90
2018-05-19T07:03:47.741Z,16.00
2018-05-19T07:06:15.069Z,16.00
2018-05-19T07:08:42.798Z,16.10
2018-05-19T07:11:09.877Z,16.00
2018-05-19T07:13:44.359Z,16.20
2018-05-19T07:16:11.668Z,16.40
2018-05-19T07:18:38.694Z,16.50
2018-05-19T07:21:05.821Z,16.60
2018-05-19T07:23:43.846Z,16.60
2018-05-19T07:26:10.873Z,16.50
2018-05-19T07:28:38.740Z,16.50
2018-05-19T07:31:05.828Z,16.50
2018-05-19T07:33:44.266Z,16.60
2018-05-19T07:36:12.104Z,16.80
2018-05-19T07:38:39.156Z,16.80
2018-05-19T07:41:06.252Z,16.80
2018-05-19T07:43:44.356Z,16.90
2018-05-19T07:46:11.781Z,16.80
2018-05-19T07:48:38.915Z,17.00
2018-05-19T07:51:05.970Z,17.00
2018-05-19T10:36:59.209Z,17.10
2018-05-19T10:39:26.341Z,21.70
2018-05-19T10:41:53.464Z,22.00
2018-05-19T10:44:21.393Z,22.50
2018-05-19T10:46:48.548Z,22.40
2018-05-19T10:49:16.393Z,22.40
2018-05-19T10:51:43.506Z,22.50
2018-05-19T10:54:10.715Z,22.70
2018-05-19T10:56:37.793Z,23.00
2018-05-19T10:59:05.117Z,23.00
2018-05-19T11:01:32.256Z,23.10
2018-05-19T11:04:13.921Z,23.10
2018-05-19T11:06:41.082Z,23.10
2018-05-19T11:09:08.153Z,23.20
2018-05-19T11:11:35.457Z,23.10
2018-05-19T11:14:06.669Z,22.90
2018-05-19T11:16:33.749Z,23.10
2018-05-19T11:19:00.858Z,23.20
2018-05-19T11:21:27.910Z,23.10
2018-05-19T11:24:23.944Z,23.10
2018-05-19T11:26:51.031Z,23.10
2018-05-19T11:29:18.083Z,23.50
2018-05-19T11:31:45.172Z,23.70
2018-05-19T11:34:13.021Z,24.10
2018-05-19T11:36:40.908Z,24.20
2018-05-19T11:39:08.009Z,24.20
2018-05-19T11:41:36.787Z,24.20
2018-05-19T11:44:12.484Z,24.30
2018-05-19T11:46:39.562Z,24.30
2018-05-19T11:49:06.652Z,24.60
2018-05-19T11:51:33.657Z,24.70
2018-05-19T11:54:01.088Z,25.00
2018-05-19T11:56:28.243Z,25.40
2018-05-19T11:58:55.305Z,26.10
2018-05-19T12:01:22.325Z,26.40
2018-05-19T12:03:49.921Z,26.80
2018-05-19T12:06:17.013Z,27.20
2018-05-19T12:08:44.024Z,27.60
2018-05-19T12:11:11.792Z,27.90
2018-05-19T12:13:38.877Z,27.80
2018-05-19T12:16:05.890Z,27.30
2018-05-19T12:18:32.936Z,26.80
2018-05-19T12:21:00.700Z,25.30
2018-05-19T12:23:28.819Z,25.30
2018-05-19T12:25:55.868Z,24.70
2018-05-19T12:28:23.728Z,24.00
2018-05-19T12:30:51.594Z,23.80
2018-05-19T12:33:18.833Z,23.70
2018-05-19T12:35:45.860Z,23.50
2018-05-19T12:38:14.066Z,23.10
2018-05-19T12:40:41.208Z,23.00
2018-05-19T12:43:12.088Z,22.70
2018-05-19T12:45:39.084Z,22.50
2018-05-19T12:48:06.133Z,22.30
2018-05-19T12:50:33.147Z,21.80
2018-05-19T12:53:00.272Z,21.40
2018-05-19T12:55:27.270Z,21.20
2018-05-19T12:57:54.320Z,21.10
2018-05-19T13:00:21.383Z,21.00
2018-05-19T13:02:48.418Z,21.00
2018-05-19T13:05:15.494Z,21.10
2018-05-19T13:07:42.487Z,21.30
2018-05-19T13:10:09.505Z,21.50
2018-05-19T13:12:36.679Z,21.60
2018-05-19T13:15:03.667Z,21.60
2018-05-19T13:17:30.669Z,21.60
2018-05-19T13:19:57.683Z,21.40
2018-05-19T13:22:24.796Z,21.30
2018-05-19T13:24:51.817Z,21.10
2018-05-19T13:27:18.827Z,20.90
2018-05-19T13:29:45.881Z,20.80
2018-05-19T13:32:12.988Z,20.50
2018-05-19T13:34:40.116Z,20.30
2018-05-19T13:37:07.438Z,20.10
2018-05-19T13:39:34.532Z,19.90
2018-05-19T13:42:01.810Z,19.60
2018-05-19T13:44:28.994Z,19.40
2018-05-19T13:46:56.072Z,19.20
2018-05-19T13:49:23.119Z,19.00
2018-05-19T13:51:50.154Z,18.90
2018-05-19T13:54:17.928Z,18.60
2018-05-19T13:56:44.932Z,18.60
2018-05-19T13:59:11.958Z,18.50
2018-05-19T14:01:39.001Z,18.50
2018-05-19T14:04:06.058Z,18.30
2018-05-19T14:06:33.092Z,18.30
2018-05-19T14:09:00.097Z,18.20
2018-05-19T14:11:27.867Z,18.00
2018-05-19T14:13:54.955Z,18.00
2018-05-19T14:16:22.101Z,18.00
2018-05-19T14:18:49.153Z,18.00
2018-05-19T14:21:16.160Z,18.00
2018-05-19T14:23:43.227Z,18.00
2018-05-19T14:26:10.246Z,18.00
2018-05-19T14:28:37.241Z,18.00
2018-05-19T14:31:04.565Z,18.00
2018-05-19T14:33:31.997Z,18.00
2018-05-19T14:35:59.061Z,18.00
2018-05-19T14:38:26.081Z,18.00
2018-05-19T14:40:53.352Z,18.10
2018-05-19T14:43:20.461Z,18.10
2018-05-19T14:45:47.454Z,18.20
2018-05-19T14:48:15.041Z,18.30
2018-05-19T14:50:42.321Z,18.40
2018-05-19T14:53:09.444Z,18.50
2018-05-19T14:55:36.648Z,18.50
2018-05-19T14:58:04.537Z,18.60
2018-05-19T15:00:31.541Z,18.70
2018-05-19T15:02:58.665Z,18.80
2018-05-19T15:05:25.684Z,18.90
2018-05-19T15:07:53.428Z,19.20
2018-05-19T15:10:20.476Z,19.10
2018-05-19T15:12:48.273Z,19.40
2018-05-19T15:15:15.276Z,19.40
2018-05-19T15:17:42.277Z,19.50
2018-05-19T15:20:09.696Z,19.60
2018-05-19T15:22:36.786Z,19.60
2018-05-19T15:25:03.817Z,19.60
2018-05-19T15:27:30.870Z,19.50
2018-05-19T15:29:57.977Z,19.60
2018-05-19T15:32:26.017Z,20.00
2018-05-19T15:34:53.089Z,19.90
2018-05-19T15:37:20.880Z,20.20
2018-05-19T15:39:48.190Z,20.20
2018-05-19T15:42:15.385Z,20.30
2018-05-19T15:44:42.505Z,20.30
2018-05-19T15:47:10.285Z,20.40
2018-05-19T15:49:38.353Z,20.40
2018-05-19T15:52:05.447Z,20.40
2018-05-19T15:54:32.641Z,20.40
2018-05-19T17:09:49.816Z,18.10
2018-05-19T17:12:16.880Z,18.10
2018-05-19T17:14:43.917Z,18.10
2018-05-19T17:17:10.899Z,18.10
2018-05-19T17:19:37.876Z,18.10
2018-05-19T17:22:05.809Z,18.20
2018-05-19T17:24:32.760Z,18.10
2018-05-19T17:27:00.596Z,18.20
2018-05-19T17:29:27.820Z,18.20
2018-05-19T17:31:54.879Z,18.20
2018-05-19T17:34:21.911Z,18.20
2018-05-19T17:36:48.927Z,18.20
2018-05-19T17:39:15.972Z,18.10
2018-05-19T17:41:42.964Z,18.10
2018-05-19T17:44:09.999Z,18.10
2018-05-19T17:46:37.088Z,18.10
2018-05-19T17:49:04.133Z,18.10
2018-05-19T17:51:31.920Z,18.10
2018-05-19T17:53:59.021Z,18.00
2018-05-19T17:56:26.041Z,18.00
2018-05-19T17:58:53.082Z,18.00
2018-05-19T18:01:20.097Z,18.00
2018-05-19T18:03:47.932Z,17.90
2018-05-19T18:06:14.985Z,17.80
2018-05-19T18:08:42.044Z,17.80
2018-05-19T18:11:09.093Z,17.80
2018-05-19T18:13:36.223Z,17.70
2018-05-19T18:16:03.529Z,17.60
2018-05-19T18:18:30.700Z,17.60
2018-05-19T18:20:57.747Z,17.60
2018-05-19T18:23:24.824Z,17.50
2018-05-19T18:25:51.825Z,17.50
2018-05-19T18:28:19.627Z,17.40
2018-05-19T18:30:47.519Z,17.40
2018-05-19T18:33:14.644Z,17.40
2018-05-19T18:35:41.682Z,17.40
2018-05-19T18:38:08.681Z,17.30
2018-05-19T18:40:36.464Z,17.30
2018-05-19T18:43:03.531Z,17.30
2018-05-19T18:45:30.846Z,17.30
2018-05-19T18:47:58.596Z,17.20
2018-05-19T18:50:26.404Z,17.20
2018-05-19T18:52:59.524Z,17.10
2018-05-19T18:55:26.601Z,17.10
2018-05-19T18:57:55.341Z,17.10
2018-05-19T19:00:22.366Z,17.10
2018-05-19T19:02:49.499Z,17.10
2018-05-19T19:05:17.880Z,17.00
2018-05-19T19:07:44.991Z,17.00
2018-05-19T19:10:11.994Z,17.00
2018-05-19T19:12:39.088Z,17.00
2018-05-19T19:15:06.172Z,16.90
2018-05-19T19:17:33.921Z,16.80
2018-05-19T19:20:00.981Z,16.80
2018-05-19T19:22:28.449Z,16.80
2018-05-19T19:24:55.707Z,16.70
2018-05-19T19:27:22.773Z,16.70
2018-05-19T19:29:49.791Z,16.70
2018-05-19T19:32:17.107Z,16.60
2018-05-19T19:34:44.261Z,16.60
2018-05-19T19:37:11.293Z,16.60
2018-05-19T19:39:38.273Z,16.60
2018-05-19T19:42:05.360Z,16.60
2018-05-19T19:44:32.419Z,16.50
2018-05-19T19:46:59.467Z,16.50
2018-05-19T19:49:26.522Z,16.50
2018-05-19T19:51:53.577Z,16.50
2018-05-19T19:54:20.584Z,16.50
2018-05-19T19:56:47.996Z,16.40
2018-05-19T19:59:15.959Z,16.40
2018-05-19T20:01:43.664Z,16.40
2018-05-19T20:04:11.467Z,16.40
2018-05-19T20:06:38.502Z,16.30
2018-05-19T20:09:06.216Z,16.40
2018-05-19T20:11:33.267Z,16.30
2018-05-19T20:14:00.456Z,16.40
2018-05-19T20:16:27.451Z,16.40
2018-05-19T20:18:55.232Z,16.30
2018-05-19T20:21:22.219Z,16.30
2018-05-19T20:23:49.285Z,16.30
2018-05-19T20:26:16.275Z,16.30
2018-05-19T20:28:44.025Z,16.20
2018-05-19T20:31:11.005Z,16.20
2018-05-19T20:33:38.182Z,16.30
2018-05-19T20:36:05.260Z,16.20
2018-05-19T20:38:32.273Z,16.20
2018-05-19T20:40:59.296Z,16.10
2018-05-19T20:43:27.101Z,16.20
2018-05-19T20:45:54.115Z,16.10
2018-05-19T20:48:21.100Z,16.10
2018-05-19T20:50:48.126Z,16.10
2018-05-19T20:53:15.182Z,16.10
2018-05-19T20:55:42.195Z,16.00
2018-05-19T20:58:09.927Z,16.00
2018-05-19T21:00:36.928Z,16.00
2018-05-19T21:03:04.046Z,16.00
2018-05-19T21:05:30.998Z,16.00
2018-05-19T21:07:57.989Z,15.90
2018-05-19T21:10:25.014Z,15.90
2018-05-19T21:12:52.792Z,15.90
2018-05-19T21:15:19.760Z,15.90
2018-05-19T21:17:46.743Z,15.80
2018-05-19T21:20:14.495Z,15.80
2018-05-19T21:22:41.681Z,15.80
2018-05-19T21:25:08.684Z,15.80
2018-05-19T21:27:35.761Z,15.70
2018-05-19T21:30:02.819Z,15.70
2018-05-19T21:32:29.876Z,15.60
2018-05-19T21:34:56.859Z,15.60
2018-05-19T21:37:23.843Z,15.60
2018-05-19T21:39:51.590Z,15.50
2018-05-19T21:45:08.328Z,15.50
2018-05-19T21:47:35.306Z,15.40
2018-05-19T21:50:02.385Z,15.40
2018-05-19T21:52:29.593Z,15.40
2018-05-19T21:54:57.320Z,15.30
2018-05-19T21:57:24.329Z,15.30
2018-05-19T21:59:51.828Z,15.30
2018-05-19T22:02:18.919Z,15.30
2018-05-19T22:04:46.027Z,15.30
2018-05-19T22:07:13.767Z,15.20
2018-05-19T22:09:40.768Z,15.20
2018-05-19T22:12:08.559Z,15.30
2018-05-19T22:14:35.575Z,15.30
2018-05-19T22:17:03.369Z,15.30
2018-05-19T22:19:30.370Z,15.30
2018-05-19T22:21:57.444Z,15.40
2018-05-19T22:24:24.463Z,15.30
2018-05-19T22:26:52.225Z,15.40
2018-05-19T22:29:20.199Z,15.30
2018-05-19T22:31:47.940Z,15.30
2018-05-19T22:34:14.923Z,15.30
2018-05-19T22:36:41.943Z,15.30
2018-05-19T22:39:08.951Z,15.20
2018-05-19T22:41:35.965Z,15.30
2018-05-19T22:44:03.781Z,15.20
2018-05-19T22:46:30.769Z,15.10
2018-05-19T22:48:58.508Z,15.20
2018-05-19T22:51:25.496Z,15.10
2018-05-19T22:53:52.567Z,15.20
2018-05-19T22:56:19.568Z,15.10
2018-05-19T22:58:47.325Z,15.10
2018-05-19T23:01:15.077Z,15.10
2018-05-19T23:03:42.171Z,15.10
2018-05-19T23:06:09.188Z,15.10
2018-05-19T23:08:36.930Z,15.00
2018-05-19T23:11:03.985Z,15.00
2018-05-19T23:13:30.994Z,15.00
2018-05-19T23:15:58.008Z,14.90
2018-05-19T23:18:25.747Z,14.90
2018-05-19T23:20:53.484Z,14.90
2018-05-19T23:23:20.497Z,14.90
2018-05-19T23:25:48.240Z,14.90
2018-05-19T23:28:15.967Z,14.80
2018-05-19T23:30:42.961Z,14.80
2018-05-19T23:33:10.045Z,14.80
2018-05-19T23:35:37.130Z,14.80
2018-05-19T23:38:04.928Z,14.70
2018-05-19T23:40:32.668Z,14.70
2018-05-19T23:42:59.784Z,14.70
2018-05-19T23:45:26.784Z,14.60
2018-05-19T23:47:53.796Z,14.60
2018-05-19T23:50:21.575Z,14.50
2018-05-19T23:52:48.644Z,14.50
2018-05-19T23:55:15.639Z,14.50
2018-05-19T23:57:42.639Z,14.50
